Aviation Forecast PDF Print E-mail

 met_logo

NATIONAL METEOROLOGICAL SERVICE OF BELIZE

Area Forecast for the Country of Belize


For the period from:

1200  23  NOVEMBER  2014

to

2400 23  NOVEMBER  2014

All Heights in the forecast are above sea level. PS= Positive, MS= Minus. All times are UTC.


A.

SPECIAL FEATURES of the METEOROLOGICAL SITUATION

 SOUTHEASTERLY AIRFLOW  WILL SUPPORT IMPROVED WEATHER  CONDITIONS OVER THE FORECAST AREA.

B.

HEIGHT (Ft)

WIND (True Degrees and Knots)

TEMPERATURE (°C)

Surface

12010

PS30-32

2,000

13015

PS21

5,000

13020

PS17

10,000

16010

PS10


C.

CLOUDS (Amount, Type, Ceiling and Top(optional))

 SCT/BKN CU BASES 1,500-2,500FT.; TOPS 8,000FT.

 SCT/BKN SC BASES LYRD BETWEEN 3,500-5,000FT.

 

 

 

 

D.

SURFACE VISIBILITY:    REDUCED TO 5-8KM IN SHRA AND 400M IN FOG PATCHES.;OTHERWISE GREATER THAN 10KM.


E.

WEATHER: MOSTLY SUNNY TODAY WITH ISOLATED SHOWERS. EARLY MORNING FOG PATCHES. 

Remarks, Warnings, Turbulence

Barometric Changes

LOW CLOUDS COVERING HILLS

DIURNAL

G.

OUTLOOK:

TO 1200 24 NOV-

PARTLY CLOUDY WITH ONLY ISOLATED SHOWERS.

H.

TAF  MZBZ

230900Z 2312/2412 12010KT 9999 SCT023 SCT040= 

I.

Meteorological Office:

BELIZE 

Issued at:

1130 23 NOVEMBER 2014

Forecaster:

F.Tench Jr.